UMMS/MSQ METAR and TAF weather

Enter ICAO airport designator
Station Type Date Time Source
UMMS METAR 2019/06/19 07:00 UTC NOAA

UMMS 190700Z VRB01MPS CAVOK 24/12 Q1019 R88/CLRD// NOSIG


Station Type Date Time Source
UMMS Decoded METAR 2019/06/19 07:00 UTC NOAA

Minsk, Belarus (UMMS) 53-56N 027-38E 231M
Jun 19, 2019 - 03:00 AM EDT / 2019.06.19 0700 UTC
Wind: Variable at 2 MPH (2 KT):0
Visibility: greater than 7 mile(s):0
Temperature: 75 F (24 C)
Dew Point: 53 F (12 C)
Relative Humidity: 46%
Pressure (altimeter): 30.09 in. Hg (1019 hPa)
ob: UMMS 190700Z VRB01MPS CAVOK 24/12 Q1019 R88/CLRD// NOSIG
cycle: 7

Station Type Date Time Source
UMMS TAF 2019/06/19 06:21 UTC NOAA

TAF TAF UMMS 190507Z 1906/2006 VRB02MPS 9999 NSC TX26/1913Z TN12/2002Z
BECMG 1908/1910 10005G10MPS SCT030
TEMPO 1923/2004 2000 BR BKN003

Example: see airport list